sensor_id;sensor_type;location;lat;lon;timestamp;temperature;humidity
318;DHT22;146;53.448;10.228;2023-06-19T00:00:19;20.80;1.00
318;DHT22;146;53.448;10.228;2023-06-19T00:02:49;20.80;1.00
318;DHT22;146;53.448;10.228;2023-06-19T00:05:16;20.90;1.00
318;DHT22;146;53.448;10.228;2023-06-19T00:07:46;20.90;1.00
318;DHT22;146;53.448;10.228;2023-06-19T00:10:17;20.90;1.00
318;DHT22;146;53.448;10.228;2023-06-19T00:12:46;20.90;1.00
318;DHT22;146;53.448;10.228;2023-06-19T00:15:17;20.90;1.00
318;DHT22;146;53.448;10.228;2023-06-19T00:17:43;20.90;1.00
318;DHT22;146;53.448;10.228;2023-06-19T00:20:10;20.90;1.00
318;DHT22;146;53.448;10.228;2023-06-19T00:22:39;20.90;1.00
318;DHT22;146;53.448;10.228;2023-06-19T00:25:22;20.90;1.00
318;DHT22;146;53.448;10.228;2023-06-19T00:27:52;20.90;1.00
318;DHT22;146;53.448;10.228;2023-06-19T00:30:34;20.90;1.00
318;DHT22;146;53.448;10.228;2023-06-19T00:33:01;20.90;1.00
318;DHT22;146;53.448;10.228;2023-06-19T00:35:34;20.90;1.00
318;DHT22;146;53.448;10.228;2023-06-19T00:38:02;20.90;1.00
318;DHT22;146;53.448;10.228;2023-06-19T00:40:39;20.90;1.00
318;DHT22;146;53.448;10.228;2023-06-19T00:43:17;20.90;1.00
318;DHT22;146;53.448;10.228;2023-06-19T00:45:44;20.90;1.00
318;DHT22;146;53.448;10.228;2023-06-19T00:48:14;20.90;1.00
318;DHT22;146;53.448;10.228;2023-06-19T00:50:48;20.90;1.00
318;DHT22;146;53.448;10.228;2023-06-19T00:53:19;20.90;1.00
318;DHT22;146;53.448;10.228;2023-06-19T00:55:59;20.90;1.00
318;DHT22;146;53.448;10.228;2023-06-19T00:58:26;20.90;1.00
318;DHT22;146;53.448;10.228;2023-06-19T01:00:53;20.90;1.00
318;DHT22;146;53.448;10.228;2023-06-19T01:03:22;20.90;1.00
318;DHT22;146;53.448;10.228;2023-06-19T01:05:53;20.90;1.00
318;DHT22;146;53.448;10.228;2023-06-19T01:08:31;20.80;1.00
318;DHT22;146;53.448;10.228;2023-06-19T01:11:29;20.80;1.00
318;DHT22;146;53.448;10.228;2023-06-19T01:14:04;20.80;1.00
318;DHT22;146;53.448;10.228;2023-06-19T01:16:36;20.80;1.00
318;DHT22;146;53.448;10.228;2023-06-19T01:19:04;20.80;1.00
318;DHT22;146;53.448;10.228;2023-06-19T01:21:32;20.80;1.00
318;DHT22;146;53.448;10.228;2023-06-19T01:24:00;20.80;1.00
318;DHT22;146;53.448;10.228;2023-06-19T01:26:27;20.80;1.00
318;DHT22;146;53.448;10.228;2023-06-19T01:28:54;20.70;1.00
318;DHT22;146;53.448;10.228;2023-06-19T01:31:25;20.80;1.00
318;DHT22;146;53.448;10.228;2023-06-19T01:33:56;20.70;1.00
318;DHT22;146;53.448;10.228;2023-06-19T01:36:24;20.70;1.00
318;DHT22;146;53.448;10.228;2023-06-19T01:38:55;20.70;1.00
318;DHT22;146;53.448;10.228;2023-06-19T01:41:45;20.70;1.00
318;DHT22;146;53.448;10.228;2023-06-19T01:44:13;20.70;1.00
318;DHT22;146;53.448;10.228;2023-06-19T01:46:40;20.70;1.00
318;DHT22;146;53.448;10.228;2023-06-19T01:49:07;20.60;1.00
318;DHT22;146;53.448;10.228;2023-06-19T01:51:35;20.60;1.00
318;DHT22;146;53.448;10.228;2023-06-19T01:54:02;20.60;1.00
318;DHT22;146;53.448;10.228;2023-06-19T01:56:32;20.60;1.00
318;DHT22;146;53.448;10.228;2023-06-19T01:59:03;20.60;1.00
318;DHT22;146;53.448;10.228;2023-06-19T02:01:33;20.60;1.00
318;DHT22;146;53.448;10.228;2023-06-19T02:04:01;20.60;1.00
318;DHT22;146;53.448;10.228;2023-06-19T02:06:30;20.60;1.00
318;DHT22;146;53.448;10.228;2023-06-19T02:08:57;20.70;1.00
318;DHT22;146;53.448;10.228;2023-06-19T02:11:26;20.60;1.00
318;DHT22;146;53.448;10.228;2023-06-19T02:13:53;20.60;1.00
318;DHT22;146;53.448;10.228;2023-06-19T02:16:30;20.60;1.00
318;DHT22;146;53.448;10.228;2023-06-19T02:18:57;20.60;1.00
318;DHT22;146;53.448;10.228;2023-06-19T02:21:32;20.60;1.00
318;DHT22;146;53.448;10.228;2023-06-19T02:23:59;20.60;1.00
318;DHT22;146;53.448;10.228;2023-06-19T02:26:26;20.60;1.00
318;DHT22;146;53.448;10.228;2023-06-19T02:29:00;20.60;1.00
318;DHT22;146;53.448;10.228;2023-06-19T02:31:28;20.60;1.00
318;DHT22;146;53.448;10.228;2023-06-19T02:33:58;20.60;1.00
318;DHT22;146;53.448;10.228;2023-06-19T02:36:28;20.60;1.00
318;DHT22;146;53.448;10.228;2023-06-19T02:38:55;20.50;1.00
318;DHT22;146;53.448;10.228;2023-06-19T02:41:25;20.50;1.00
318;DHT22;146;53.448;10.228;2023-06-19T02:43:52;20.50;1.00
318;DHT22;146;53.448;10.228;2023-06-19T02:46:19;20.50;1.00
318;DHT22;146;53.448;10.228;2023-06-19T02:48:56;20.50;1.00
318;DHT22;146;53.448;10.228;2023-06-19T02:51:26;20.50;1.00
318;DHT22;146;53.448;10.228;2023-06-19T02:53:56;20.50;1.00
318;DHT22;146;53.448;10.228;2023-06-19T02:56:23;20.50;1.00
318;DHT22;146;53.448;10.228;2023-06-19T02:58:58;20.50;1.00
318;DHT22;146;53.448;10.228;2023-06-19T03:01:25;20.50;1.00
318;DHT22;146;53.448;10.228;2023-06-19T03:03:56;20.50;1.00
318;DHT22;146;53.448;10.228;2023-06-19T03:06:23;20.50;1.00
318;DHT22;146;53.448;10.228;2023-06-19T03:08:54;20.40;1.00
318;DHT22;146;53.448;10.228;2023-06-19T03:11:27;20.40;1.00
318;DHT22;146;53.448;10.228;2023-06-19T03:13:54;20.40;1.00
318;DHT22;146;53.448;10.228;2023-06-19T03:16:21;20.50;1.00
318;DHT22;146;53.448;10.228;2023-06-19T03:18:51;20.50;1.00
318;DHT22;146;53.448;10.228;2023-06-19T03:21:19;20.50;1.00
318;DHT22;146;53.448;10.228;2023-06-19T03:23:50;20.50;1.00
318;DHT22;146;53.448;10.228;2023-06-19T03:26:18;20.50;1.00
318;DHT22;146;53.448;10.228;2023-06-19T03:28:45;20.40;1.00
318;DHT22;146;53.448;10.228;2023-06-19T03:31:19;20.40;1.00
318;DHT22;146;53.448;10.228;2023-06-19T03:33:46;20.40;1.00
318;DHT22;146;53.448;10.228;2023-06-19T03:36:12;20.40;1.00
318;DHT22;146;53.448;10.228;2023-06-19T03:38:47;20.50;1.00
318;DHT22;146;53.448;10.228;2023-06-19T03:41:20;20.50;1.00
318;DHT22;146;53.448;10.228;2023-06-19T03:43:50;20.50;1.00
318;DHT22;146;53.448;10.228;2023-06-19T03:46:25;20.60;1.00
318;DHT22;146;53.448;10.228;2023-06-19T03:48:52;20.60;1.00
318;DHT22;146;53.448;10.228;2023-06-19T03:51:19;20.60;1.00
318;DHT22;146;53.448;10.228;2023-06-19T03:53:50;20.50;1.00
318;DHT22;146;53.448;10.228;2023-06-19T03:56:23;20.60;1.00
318;DHT22;146;53.448;10.228;2023-06-19T03:58:50;20.60;1.00
318;DHT22;146;53.448;10.228;2023-06-19T04:01:17;20.60;1.00
318;DHT22;146;53.448;10.228;2023-06-19T04:03:49;20.60;1.00
318;DHT22;146;53.448;10.228;2023-06-19T04:06:28;20.50;1.00
318;DHT22;146;53.448;10.228;2023-06-19T04:08:58;20.60;1.00
318;DHT22;146;53.448;10.228;2023-06-19T04:11:31;20.60;1.00
318;DHT22;146;53.448;10.228;2023-06-19T04:13:58;20.60;1.00
318;DHT22;146;53.448;10.228;2023-06-19T04:16:31;20.60;1.00
318;DHT22;146;53.448;10.228;2023-06-19T04:19:06;20.60;1.00
318;DHT22;146;53.448;10.228;2023-06-19T04:21:33;20.70;1.00
318;DHT22;146;53.448;10.228;2023-06-19T04:24:01;20.60;1.00
318;DHT22;146;53.448;10.228;2023-06-19T04:26:34;20.60;1.00
318;DHT22;146;53.448;10.228;2023-06-19T04:29:02;20.60;1.00
318;DHT22;146;53.448;10.228;2023-06-19T04:31:34;20.60;1.00
318;DHT22;146;53.448;10.228;2023-06-19T04:34:12;20.60;1.00
318;DHT22;146;53.448;10.228;2023-06-19T04:36:42;20.60;1.00
318;DHT22;146;53.448;10.228;2023-06-19T04:39:11;20.60;1.00
318;DHT22;146;53.448;10.228;2023-06-19T04:41:38;20.60;1.00
318;DHT22;146;53.448;10.228;2023-06-19T04:44:12;20.60;1.00
318;DHT22;146;53.448;10.228;2023-06-19T04:46:42;20.60;1.00
318;DHT22;146;53.448;10.228;2023-06-19T04:49:10;20.60;1.00
318;DHT22;146;53.448;10.228;2023-06-19T04:51:46;20.60;1.00
318;DHT22;146;53.448;10.228;2023-06-19T04:54:15;20.60;1.00
318;DHT22;146;53.448;10.228;2023-06-19T04:56:57;20.60;1.00
318;DHT22;146;53.448;10.228;2023-06-19T04:59:24;20.70;1.00
318;DHT22;146;53.448;10.228;2023-06-19T05:01:51;20.70;1.00
318;DHT22;146;53.448;10.228;2023-06-19T05:04:22;20.70;1.00
318;DHT22;146;53.448;10.228;2023-06-19T05:06:49;20.70;1.00
318;DHT22;146;53.448;10.228;2023-06-19T05:09:17;20.70;1.00
318;DHT22;146;53.448;10.228;2023-06-19T05:11:56;20.70;1.00
318;DHT22;146;53.448;10.228;2023-06-19T05:14:23;20.80;1.00
318;DHT22;146;53.448;10.228;2023-06-19T05:16:53;20.70;1.00
318;DHT22;146;53.448;10.228;2023-06-19T05:19:20;20.80;1.00
318;DHT22;146;53.448;10.228;2023-06-19T05:21:50;20.80;1.00
318;DHT22;146;53.448;10.228;2023-06-19T05:24:20;20.80;1.00
318;DHT22;146;53.448;10.228;2023-06-19T05:26:47;20.80;1.00
318;DHT22;146;53.448;10.228;2023-06-19T05:29:14;20.80;1.00
318;DHT22;146;53.448;10.228;2023-06-19T05:31:50;20.80;1.00
318;DHT22;146;53.448;10.228;2023-06-19T05:34:17;20.80;1.00
318;DHT22;146;53.448;10.228;2023-06-19T05:36:44;20.80;1.00
318;DHT22;146;53.448;10.228;2023-06-19T05:39:12;20.80;1.00
318;DHT22;146;53.448;10.228;2023-06-19T05:41:44;20.80;1.00
318;DHT22;146;53.448;10.228;2023-06-19T05:44:14;20.80;1.00
318;DHT22;146;53.448;10.228;2023-06-19T05:46:42;20.90;1.00
318;DHT22;146;53.448;10.228;2023-06-19T05:49:09;20.90;1.00
318;DHT22;146;53.448;10.228;2023-06-19T05:51:42;20.90;1.00
318;DHT22;146;53.448;10.228;2023-06-19T05:54:12;20.90;1.00
318;DHT22;146;53.448;10.228;2023-06-19T05:56:39;21.00;1.00
318;DHT22;146;53.448;10.228;2023-06-19T05:59:22;21.00;1.00
318;DHT22;146;53.448;10.228;2023-06-19T06:01:49;21.00;1.00
318;DHT22;146;53.448;10.228;2023-06-19T06:04:18;21.10;1.00
318;DHT22;146;53.448;10.228;2023-06-19T06:06:50;21.10;1.00
318;DHT22;146;53.448;10.228;2023-06-19T06:09:16;21.10;1.00
318;DHT22;146;53.448;10.228;2023-06-19T06:11:46;21.20;1.00
318;DHT22;146;53.448;10.228;2023-06-19T06:14:14;21.20;1.00
318;DHT22;146;53.448;10.228;2023-06-19T06:16:54;21.10;1.00
318;DHT22;146;53.448;10.228;2023-06-19T06:19:21;21.10;1.00
318;DHT22;146;53.448;10.228;2023-06-19T06:21:51;21.10;1.00
318;DHT22;146;53.448;10.228;2023-06-19T06:24:25;21.20;1.00
318;DHT22;146;53.448;10.228;2023-06-19T06:26:52;21.20;1.00
318;DHT22;146;53.448;10.228;2023-06-19T06:29:19;21.20;1.00
318;DHT22;146;53.448;10.228;2023-06-19T06:31:49;21.20;1.00
318;DHT22;146;53.448;10.228;2023-06-19T06:34:29;21.20;1.00
318;DHT22;146;53.448;10.228;2023-06-19T06:36:59;21.30;1.00
318;DHT22;146;53.448;10.228;2023-06-19T06:39:30;21.30;1.00
318;DHT22;146;53.448;10.228;2023-06-19T06:42:00;21.40;1.00
318;DHT22;146;53.448;10.228;2023-06-19T06:44:26;21.40;1.00
318;DHT22;146;53.448;10.228;2023-06-19T06:46:56;21.50;1.00
318;DHT22;146;53.448;10.228;2023-06-19T06:49:27;21.50;1.00
318;DHT22;146;53.448;10.228;2023-06-19T06:52:03;21.50;1.00
318;DHT22;146;53.448;10.228;2023-06-19T06:54:30;21.50;1.00
318;DHT22;146;53.448;10.228;2023-06-19T06:57:03;21.50;1.00
318;DHT22;146;53.448;10.228;2023-06-19T06:59:55;21.50;1.00
318;DHT22;146;53.448;10.228;2023-06-19T07:02:24;21.50;1.00
318;DHT22;146;53.448;10.228;2023-06-19T07:04:53;21.50;1.00
318;DHT22;146;53.448;10.228;2023-06-19T07:07:22;21.50;1.00
318;DHT22;146;53.448;10.228;2023-06-19T07:09:52;21.50;1.00
318;DHT22;146;53.448;10.228;2023-06-19T07:12:21;21.40;1.00
318;DHT22;146;53.448;10.228;2023-06-19T07:15:00;21.50;1.00
318;DHT22;146;53.448;10.228;2023-06-19T07:17:26;21.50;1.00
318;DHT22;146;53.448;10.228;2023-06-19T07:19:57;21.50;1.00
318;DHT22;146;53.448;10.228;2023-06-19T07:22:32;21.50;1.00
318;DHT22;146;53.448;10.228;2023-06-19T07:25:05;21.50;1.00
318;DHT22;146;53.448;10.228;2023-06-19T07:27:32;21.50;1.00
318;DHT22;146;53.448;10.228;2023-06-19T07:30:06;21.40;1.00
318;DHT22;146;53.448;10.228;2023-06-19T07:32:36;21.50;1.00
318;DHT22;146;53.448;10.228;2023-06-19T07:35:12;21.50;1.00
318;DHT22;146;53.448;10.228;2023-06-19T07:37:39;21.50;1.00
318;DHT22;146;53.448;10.228;2023-06-19T07:40:10;21.50;1.00
318;DHT22;146;53.448;10.228;2023-06-19T07:42:43;21.50;1.00
318;DHT22;146;53.448;10.228;2023-06-19T07:45:22;21.60;1.00
318;DHT22;146;53.448;10.228;2023-06-19T07:47:54;21.60;1.00
318;DHT22;146;53.448;10.228;2023-06-19T07:50:37;21.60;1.00
318;DHT22;146;53.448;10.228;2023-06-19T07:53:11;21.70;1.00
318;DHT22;146;53.448;10.228;2023-06-19T07:55:38;21.80;1.00
318;DHT22;146;53.448;10.228;2023-06-19T07:58:14;21.80;1.00
318;DHT22;146;53.448;10.228;2023-06-19T08:00:50;21.90;1.00
318;DHT22;146;53.448;10.228;2023-06-19T08:03:22;21.90;1.00
318;DHT22;146;53.448;10.228;2023-06-19T08:05:51;21.90;1.00
318;DHT22;146;53.448;10.228;2023-06-19T08:08:18;22.10;1.00
318;DHT22;146;53.448;10.228;2023-06-19T08:10:48;22.10;1.00
318;DHT22;146;53.448;10.228;2023-06-19T08:13:24;22.10;1.00
318;DHT22;146;53.448;10.228;2023-06-19T08:15:50;22.20;1.00
318;DHT22;146;53.448;10.228;2023-06-19T08:18:17;22.40;1.00
318;DHT22;146;53.448;10.228;2023-06-19T08:20:51;22.60;1.00
318;DHT22;146;53.448;10.228;2023-06-19T08:23:24;22.70;1.00
318;DHT22;146;53.448;10.228;2023-06-19T08:25:57;22.90;1.00
318;DHT22;146;53.448;10.228;2023-06-19T08:28:24;23.00;1.00
318;DHT22;146;53.448;10.228;2023-06-19T08:30:50;23.10;1.00
318;DHT22;146;53.448;10.228;2023-06-19T08:33:17;23.10;1.00
318;DHT22;146;53.448;10.228;2023-06-19T08:35:47;23.20;1.00
318;DHT22;146;53.448;10.228;2023-06-19T08:38:15;23.20;1.00
318;DHT22;146;53.448;10.228;2023-06-19T08:40:48;23.30;1.00
318;DHT22;146;53.448;10.228;2023-06-19T08:43:15;23.30;1.00
318;DHT22;146;53.448;10.228;2023-06-19T08:46:00;23.40;1.00
318;DHT22;146;53.448;10.228;2023-06-19T08:48:43;23.40;1.00
318;DHT22;146;53.448;10.228;2023-06-19T08:51:11;23.40;1.00
318;DHT22;146;53.448;10.228;2023-06-19T08:53:47;23.50;1.00
318;DHT22;146;53.448;10.228;2023-06-19T08:56:26;23.40;1.00
318;DHT22;146;53.448;10.228;2023-06-19T08:59:06;23.40;1.00
318;DHT22;146;53.448;10.228;2023-06-19T09:01:47;23.60;1.00
318;DHT22;146;53.448;10.228;2023-06-19T09:04:21;23.70;1.00
318;DHT22;146;53.448;10.228;2023-06-19T09:06:49;23.90;1.00
318;DHT22;146;53.448;10.228;2023-06-19T09:09:25;24.20;1.00
318;DHT22;146;53.448;10.228;2023-06-19T09:11:57;24.30;1.00
318;DHT22;146;53.448;10.228;2023-06-19T09:14:31;24.50;1.00
318;DHT22;146;53.448;10.228;2023-06-19T09:17:01;24.60;1.00
318;DHT22;146;53.448;10.228;2023-06-19T09:19:28;24.70;1.00
318;DHT22;146;53.448;10.228;2023-06-19T09:21:59;24.80;1.00
318;DHT22;146;53.448;10.228;2023-06-19T09:24:42;24.90;1.00
318;DHT22;146;53.448;10.228;2023-06-19T09:27:14;24.90;1.00
318;DHT22;146;53.448;10.228;2023-06-19T09:29:50;24.90;1.00
318;DHT22;146;53.448;10.228;2023-06-19T09:32:28;24.90;1.00
318;DHT22;146;53.448;10.228;2023-06-19T09:34:56;24.90;1.00
318;DHT22;146;53.448;10.228;2023-06-19T09:37:34;24.90;1.00
318;DHT22;146;53.448;10.228;2023-06-19T09:40:19;25.00;1.00
318;DHT22;146;53.448;10.228;2023-06-19T09:42:49;25.10;1.00
318;DHT22;146;53.448;10.228;2023-06-19T09:45:29;25.30;1.00
318;DHT22;146;53.448;10.228;2023-06-19T09:47:57;25.40;1.00
318;DHT22;146;53.448;10.228;2023-06-19T09:50:27;25.60;1.00
318;DHT22;146;53.448;10.228;2023-06-19T09:52:55;25.70;1.00
318;DHT22;146;53.448;10.228;2023-06-19T09:55:24;25.80;1.00
318;DHT22;146;53.448;10.228;2023-06-19T09:57:54;25.80;1.00
318;DHT22;146;53.448;10.228;2023-06-19T10:00:21;25.80;1.00
318;DHT22;146;53.448;10.228;2023-06-19T10:02:52;26.00;1.00
318;DHT22;146;53.448;10.228;2023-06-19T10:05:28;26.00;1.00
318;DHT22;146;53.448;10.228;2023-06-19T10:07:56;26.10;1.00
318;DHT22;146;53.448;10.228;2023-06-19T10:10:27;26.20;1.00
318;DHT22;146;53.448;10.228;2023-06-19T10:12:55;26.20;1.00
318;DHT22;146;53.448;10.228;2023-06-19T10:15:23;26.40;1.00
318;DHT22;146;53.448;10.228;2023-06-19T10:17:52;26.40;1.00
318;DHT22;146;53.448;10.228;2023-06-19T10:20:30;26.60;1.00
318;DHT22;146;53.448;10.228;2023-06-19T10:23:01;26.70;1.00
318;DHT22;146;53.448;10.228;2023-06-19T10:25:32;26.80;1.00
318;DHT22;146;53.448;10.228;2023-06-19T10:28:16;26.90;1.00
318;DHT22;146;53.448;10.228;2023-06-19T10:30:56;27.00;1.00
318;DHT22;146;53.448;10.228;2023-06-19T10:33:25;27.10;1.00
318;DHT22;146;53.448;10.228;2023-06-19T10:35:53;27.10;1.00
318;DHT22;146;53.448;10.228;2023-06-19T10:38:22;27.10;1.00
318;DHT22;146;53.448;10.228;2023-06-19T10:40:50;27.10;1.00
318;DHT22;146;53.448;10.228;2023-06-19T10:43:20;27.20;1.00
318;DHT22;146;53.448;10.228;2023-06-19T10:45:50;27.10;1.00
318;DHT22;146;53.448;10.228;2023-06-19T10:48:19;27.10;1.00
318;DHT22;146;53.448;10.228;2023-06-19T10:50:58;27.10;1.00
318;DHT22;146;53.448;10.228;2023-06-19T10:53:26;27.00;1.00
318;DHT22;146;53.448;10.228;2023-06-19T10:55:57;27.00;1.00
318;DHT22;146;53.448;10.228;2023-06-19T10:58:31;26.90;1.00
318;DHT22;146;53.448;10.228;2023-06-19T11:00:58;26.90;1.00
318;DHT22;146;53.448;10.228;2023-06-19T11:03:28;27.00;1.00
318;DHT22;146;53.448;10.228;2023-06-19T11:05:58;27.10;1.00
318;DHT22;146;53.448;10.228;2023-06-19T11:08:28;27.10;1.00
318;DHT22;146;53.448;10.228;2023-06-19T11:10:56;27.20;1.00
318;DHT22;146;53.448;10.228;2023-06-19T11:13:26;27.30;1.00
318;DHT22;146;53.448;10.228;2023-06-19T11:15:56;27.40;1.00
318;DHT22;146;53.448;10.228;2023-06-19T11:18:24;27.50;1.00
318;DHT22;146;53.448;10.228;2023-06-19T11:20:52;27.40;1.00
318;DHT22;146;53.448;10.228;2023-06-19T11:23:25;27.50;1.00
318;DHT22;146;53.448;10.228;2023-06-19T11:25:53;27.50;1.00
318;DHT22;146;53.448;10.228;2023-06-19T11:28:27;27.60;1.00
318;DHT22;146;53.448;10.228;2023-06-19T11:30:58;27.60;1.00
318;DHT22;146;53.448;10.228;2023-06-19T11:33:25;27.60;1.00
318;DHT22;146;53.448;10.228;2023-06-19T11:35:53;27.70;1.00
318;DHT22;146;53.448;10.228;2023-06-19T11:38:37;27.70;1.00
318;DHT22;146;53.448;10.228;2023-06-19T11:41:25;28.00;1.00
318;DHT22;146;53.448;10.228;2023-06-19T11:43:59;28.10;1.00
318;DHT22;146;53.448;10.228;2023-06-19T11:46:30;28.20;1.00
318;DHT22;146;53.448;10.228;2023-06-19T11:49:07;28.30;1.00
318;DHT22;146;53.448;10.228;2023-06-19T11:51:42;28.40;1.00
318;DHT22;146;53.448;10.228;2023-06-19T11:54:13;28.50;1.00
318;DHT22;146;53.448;10.228;2023-06-19T11:56:47;28.60;1.00
318;DHT22;146;53.448;10.228;2023-06-19T11:59:18;28.60;1.00
318;DHT22;146;53.448;10.228;2023-06-19T12:01:45;28.60;1.00
318;DHT22;146;53.448;10.228;2023-06-19T12:04:12;28.70;1.00
318;DHT22;146;53.448;10.228;2023-06-19T12:06:47;28.90;1.00
318;DHT22;146;53.448;10.228;2023-06-19T12:09:22;28.90;1.00
318;DHT22;146;53.448;10.228;2023-06-19T12:11:49;28.90;1.00
318;DHT22;146;53.448;10.228;2023-06-19T12:14:19;28.90;1.00
318;DHT22;146;53.448;10.228;2023-06-19T12:16:52;29.00;1.00
318;DHT22;146;53.448;10.228;2023-06-19T12:19:23;29.10;1.00
318;DHT22;146;53.448;10.228;2023-06-19T12:21:58;29.30;1.00
318;DHT22;146;53.448;10.228;2023-06-19T12:24:25;29.30;1.00
318;DHT22;146;53.448;10.228;2023-06-19T12:26:52;29.30;1.00
318;DHT22;146;53.448;10.228;2023-06-19T12:29:26;29.30;1.00
318;DHT22;146;53.448;10.228;2023-06-19T12:31:59;29.30;1.00
318;DHT22;146;53.448;10.228;2023-06-19T12:34:26;29.10;1.00
318;DHT22;146;53.448;10.228;2023-06-19T12:36:54;29.00;1.00
318;DHT22;146;53.448;10.228;2023-06-19T12:39:22;29.00;1.00
318;DHT22;146;53.448;10.228;2023-06-19T12:41:52;28.80;1.00
318;DHT22;146;53.448;10.228;2023-06-19T12:44:21;28.80;1.00
318;DHT22;146;53.448;10.228;2023-06-19T12:46:50;28.70;1.00
318;DHT22;146;53.448;10.228;2023-06-19T12:49:18;28.70;1.00
318;DHT22;146;53.448;10.228;2023-06-19T12:51:50;28.70;1.00
318;DHT22;146;53.448;10.228;2023-06-19T12:54:17;28.80;1.00
318;DHT22;146;53.448;10.228;2023-06-19T12:56:47;28.60;1.00
318;DHT22;146;53.448;10.228;2023-06-19T12:59:14;28.60;1.00
318;DHT22;146;53.448;10.228;2023-06-19T13:01:43;28.40;1.00
318;DHT22;146;53.448;10.228;2023-06-19T13:04:15;28.20;1.00
318;DHT22;146;53.448;10.228;2023-06-19T13:06:47;28.00;1.00
318;DHT22;146;53.448;10.228;2023-06-19T13:09:14;27.90;1.00
318;DHT22;146;53.448;10.228;2023-06-19T13:11:48;28.00;1.00
318;DHT22;146;53.448;10.228;2023-06-19T13:14:21;28.00;1.00
318;DHT22;146;53.448;10.228;2023-06-19T13:16:56;27.90;1.00
318;DHT22;146;53.448;10.228;2023-06-19T13:19:27;28.00;1.00
318;DHT22;146;53.448;10.228;2023-06-19T13:21:57;28.10;1.00
318;DHT22;146;53.448;10.228;2023-06-19T13:24:29;28.10;1.00
318;DHT22;146;53.448;10.228;2023-06-19T13:27:02;28.10;1.00
318;DHT22;146;53.448;10.228;2023-06-19T13:29:34;28.30;1.00
318;DHT22;146;53.448;10.228;2023-06-19T13:32:01;28.40;1.00
318;DHT22;146;53.448;10.228;2023-06-19T13:34:29;28.50;1.00
318;DHT22;146;53.448;10.228;2023-06-19T13:36:56;28.50;1.00
318;DHT22;146;53.448;10.228;2023-06-19T13:39:23;28.50;1.00
318;DHT22;146;53.448;10.228;2023-06-19T13:41:51;28.40;1.00
318;DHT22;146;53.448;10.228;2023-06-19T13:44:21;28.40;1.00
318;DHT22;146;53.448;10.228;2023-06-19T13:46:50;28.30;1.00
318;DHT22;146;53.448;10.228;2023-06-19T13:49:20;28.20;1.00
318;DHT22;146;53.448;10.228;2023-06-19T13:52:00;28.20;1.00
318;DHT22;146;53.448;10.228;2023-06-19T13:54:27;28.10;1.00
318;DHT22;146;53.448;10.228;2023-06-19T13:56:54;27.90;1.00
318;DHT22;146;53.448;10.228;2023-06-19T13:59:24;27.80;1.00
318;DHT22;146;53.448;10.228;2023-06-19T14:01:51;27.80;1.00
318;DHT22;146;53.448;10.228;2023-06-19T14:04:23;27.80;1.00
318;DHT22;146;53.448;10.228;2023-06-19T14:06:56;27.80;1.00
318;DHT22;146;53.448;10.228;2023-06-19T14:09:44;27.80;1.00
318;DHT22;146;53.448;10.228;2023-06-19T14:12:19;27.80;1.00
318;DHT22;146;53.448;10.228;2023-06-19T14:14:53;27.80;1.00
318;DHT22;146;53.448;10.228;2023-06-19T14:17:38;27.80;1.00
318;DHT22;146;53.448;10.228;2023-06-19T14:20:12;27.80;1.00
318;DHT22;146;53.448;10.228;2023-06-19T14:22:51;27.70;1.00
318;DHT22;146;53.448;10.228;2023-06-19T14:25:22;27.70;1.00
318;DHT22;146;53.448;10.228;2023-06-19T14:27:49;27.80;1.00
318;DHT22;146;53.448;10.228;2023-06-19T14:30:16;27.70;1.00
318;DHT22;146;53.448;10.228;2023-06-19T14:32:48;27.70;1.00
318;DHT22;146;53.448;10.228;2023-06-19T14:35:15;27.80;1.00
318;DHT22;146;53.448;10.228;2023-06-19T14:37:49;27.80;1.00
318;DHT22;146;53.448;10.228;2023-06-19T14:40:18;27.80;1.00
318;DHT22;146;53.448;10.228;2023-06-19T14:42:52;27.80;1.00
318;DHT22;146;53.448;10.228;2023-06-19T14:45:18;27.80;1.00
318;DHT22;146;53.448;10.228;2023-06-19T14:47:51;27.70;1.00
318;DHT22;146;53.448;10.228;2023-06-19T14:50:21;27.60;1.00
318;DHT22;146;53.448;10.228;2023-06-19T14:52:51;27.60;1.00
318;DHT22;146;53.448;10.228;2023-06-19T14:55:21;27.50;1.00
318;DHT22;146;53.448;10.228;2023-06-19T14:57:49;27.50;1.00
318;DHT22;146;53.448;10.228;2023-06-19T15:00:22;27.60;1.00
318;DHT22;146;53.448;10.228;2023-06-19T15:02:49;27.50;1.00
318;DHT22;146;53.448;10.228;2023-06-19T15:05:16;27.50;1.00
318;DHT22;146;53.448;10.228;2023-06-19T15:07:42;27.50;1.00
318;DHT22;146;53.448;10.228;2023-06-19T15:10:15;27.50;1.00
318;DHT22;146;53.448;10.228;2023-06-19T15:12:52;27.40;1.00
318;DHT22;146;53.448;10.228;2023-06-19T15:15:19;27.50;1.00
318;DHT22;146;53.448;10.228;2023-06-19T15:17:49;27.50;1.00
318;DHT22;146;53.448;10.228;2023-06-19T15:20:18;27.50;1.00
318;DHT22;146;53.448;10.228;2023-06-19T15:22:46;27.60;1.00
318;DHT22;146;53.448;10.228;2023-06-19T15:25:13;27.50;1.00
318;DHT22;146;53.448;10.228;2023-06-19T15:27:40;27.60;1.00
318;DHT22;146;53.448;10.228;2023-06-19T15:30:16;27.50;1.00
318;DHT22;146;53.448;10.228;2023-06-19T15:32:45;27.60;1.00
318;DHT22;146;53.448;10.228;2023-06-19T15:35:15;27.50;1.00
318;DHT22;146;53.448;10.228;2023-06-19T15:37:44;27.60;1.00
318;DHT22;146;53.448;10.228;2023-06-19T15:40:14;27.60;1.00
318;DHT22;146;53.448;10.228;2023-06-19T15:42:41;27.50;1.00
318;DHT22;146;53.448;10.228;2023-06-19T15:45:17;27.40;1.00
318;DHT22;146;53.448;10.228;2023-06-19T15:47:47;27.40;1.00
318;DHT22;146;53.448;10.228;2023-06-19T15:50:22;27.40;1.00
318;DHT22;146;53.448;10.228;2023-06-19T15:52:52;27.30;1.00
318;DHT22;146;53.448;10.228;2023-06-19T15:55:22;27.20;1.00
318;DHT22;146;53.448;10.228;2023-06-19T15:57:49;27.20;1.00
318;DHT22;146;53.448;10.228;2023-06-19T16:00:20;27.10;1.00
318;DHT22;146;53.448;10.228;2023-06-19T16:02:50;27.10;1.00
318;DHT22;146;53.448;10.228;2023-06-19T16:05:20;27.10;1.00
318;DHT22;146;53.448;10.228;2023-06-19T16:07:51;27.00;1.00
318;DHT22;146;53.448;10.228;2023-06-19T16:10:24;27.10;1.00
318;DHT22;146;53.448;10.228;2023-06-19T16:12:58;27.00;1.00
318;DHT22;146;53.448;10.228;2023-06-19T16:15:26;27.00;1.00
318;DHT22;146;53.448;10.228;2023-06-19T16:17:54;27.10;1.00
318;DHT22;146;53.448;10.228;2023-06-19T16:20:24;27.10;1.00
318;DHT22;146;53.448;10.228;2023-06-19T16:22:51;27.00;1.00
318;DHT22;146;53.448;10.228;2023-06-19T16:25:18;27.00;1.00
318;DHT22;146;53.448;10.228;2023-06-19T16:27:51;27.00;1.00
318;DHT22;146;53.448;10.228;2023-06-19T16:30:18;27.10;1.00
318;DHT22;146;53.448;10.228;2023-06-19T16:32:46;27.10;1.00
318;DHT22;146;53.448;10.228;2023-06-19T16:35:13;27.10;1.00
318;DHT22;146;53.448;10.228;2023-06-19T16:37:51;27.30;1.00
318;DHT22;146;53.448;10.228;2023-06-19T16:40:22;27.30;1.00
318;DHT22;146;53.448;10.228;2023-06-19T16:42:54;27.30;1.00
318;DHT22;146;53.448;10.228;2023-06-19T16:45:21;27.30;1.00
318;DHT22;146;53.448;10.228;2023-06-19T16:47:53;27.40;1.00
318;DHT22;146;53.448;10.228;2023-06-19T16:50:27;27.20;1.00
318;DHT22;146;53.448;10.228;2023-06-19T16:52:57;27.10;1.00
318;DHT22;146;53.448;10.228;2023-06-19T16:55:24;27.10;1.00
318;DHT22;146;53.448;10.228;2023-06-19T16:57:54;27.10;1.00